Time;durP1;ratioP1;P1;durP2;ratioP2;P2;SDS_P1;SDS_P2;PMS_P1;PMS_P2;Temp;Humidity;BMP_temperature;BMP_pressure;BME280_temperature;BME280_humidity;BME280_pressure;Samples;Min_cycle;Max_cycle;Signal;HPM_P1;HPM_P2
2022/10/11 00:00:31;;;;;;;20.60;7.82;;;12.60;71.80;;;;;;5034731;28;20317;-66
2022/10/11 00:02:57;;;;;;;18.52;7.45;;;12.60;72.20;;;;;;5033330;28;20026;-66
2022/10/11 00:05:24;;;;;;;14.38;6.20;;;12.50;72.00;;;;;;5034120;28;20419;-65
2022/10/11 00:07:50;;;;;;;18.05;6.55;;;12.40;72.00;;;;;;5029174;28;20037;-66
2022/10/11 00:10:16;;;;;;;16.60;6.80;;;12.40;71.80;;;;;;5028299;28;20036;-66
2022/10/11 00:12:42;;;;;;;16.20;6.93;;;12.40;71.60;;;;;;5028315;28;20529;-66
2022/10/11 00:15:10;;;;;;;18.10;9.07;;;12.40;71.50;;;;;;5030966;28;20116;-65
2022/10/11 00:17:36;;;;;;;13.95;5.63;;;12.40;71.50;;;;;;5031759;28;20499;-66
2022/10/11 00:20:05;;;;;;;16.55;5.60;;;12.40;71.20;;;;;;5038404;28;20067;-66
2022/10/11 00:22:31;;;;;;;13.88;6.57;;;12.40;71.40;;;;;;5037004;28;20100;-66
2022/10/11 00:24:58;;;;;;;16.88;6.03;;;12.40;71.50;;;;;;5032669;28;20072;-66
2022/10/11 00:27:23;;;;;;;19.13;8.20;;;12.30;71.70;;;;;;5031720;28;20017;-66
2022/10/11 00:29:49;;;;;;;14.02;6.82;;;12.30;71.40;;;;;;5022028;28;20040;-66
2022/10/11 00:32:15;;;;;;;15.60;7.05;;;12.30;71.20;;;;;;5035226;28;20029;-66
2022/10/11 00:34:41;;;;;;;17.92;7.95;;;12.30;71.30;;;;;;5031801;28;20025;-65
2022/10/11 00:37:06;;;;;;;27.15;10.07;;;12.30;71.30;;;;;;5033971;28;20200;-65
2022/10/11 00:39:32;;;;;;;15.85;6.45;;;12.30;71.30;;;;;;5028833;28;20025;-66
2022/10/11 00:41:58;;;;;;;20.08;7.43;;;12.30;71.20;;;;;;5031671;28;20032;-66
2022/10/11 00:44:27;;;;;;;16.02;6.88;;;12.30;71.20;;;;;;5031499;28;20025;-65
2022/10/11 00:47:17;;;;;;;14.63;5.85;;;12.30;71.20;;;;;;5032389;28;20086;-65
2022/10/11 00:49:45;;;;;;;14.77;6.18;;;12.30;71.10;;;;;;5031482;28;20107;-66
2022/10/11 00:52:20;;;;;;;20.30;8.85;;;12.30;71.00;;;;;;5032711;28;20417;-66
2022/10/11 00:54:47;;;;;;;18.15;8.30;;;12.30;71.00;;;;;;5030428;28;20075;-65
2022/10/11 00:57:18;;;;;;;17.80;7.55;;;12.30;71.00;;;;;;5032188;28;20045;-65
2022/10/11 00:59:49;;;;;;;19.33;7.18;;;12.30;70.90;;;;;;5033149;28;20045;-65
2022/10/11 01:02:17;;;;;;;18.02;8.23;;;12.30;70.80;;;;;;5033259;28;20026;-64
2022/10/11 01:04:42;;;;;;;20.42;7.43;;;12.30;70.90;;;;;;5022095;28;20053;-66
2022/10/11 01:07:09;;;;;;;16.98;8.02;;;12.40;71.00;;;;;;5032929;28;22382;-65
2022/10/11 01:09:35;;;;;;;18.33;8.43;;;12.40;70.90;;;;;;5031811;28;20435;-65
2022/10/11 01:12:05;;;;;;;17.65;7.75;;;12.40;71.00;;;;;;5028581;28;20163;-66
2022/10/11 01:14:49;;;;;;;19.23;7.65;;;12.40;71.00;;;;;;5032276;28;20033;-66
2022/10/11 01:17:20;;;;;;;21.08;8.98;;;12.40;70.90;;;;;;5029606;28;20029;-65
2022/10/11 01:20:29;;;;;;;15.77;7.15;;;12.40;71.00;;;;;;5029916;28;20025;-66
2022/10/11 01:23:28;;;;;;;14.68;7.68;;;12.40;71.00;;;;;;5025166;28;20030;-66
2022/10/11 01:26:24;;;;;;;11.90;6.30;;;12.40;70.90;;;;;;5032174;28;20037;-66
2022/10/11 01:29:17;;;;;;;22.30;9.57;;;12.40;70.90;;;;;;5035648;28;20029;-66
2022/10/11 01:31:50;;;;;;;16.23;8.45;;;12.40;70.70;;;;;;5037101;28;20026;-64
2022/10/11 01:34:41;;;;;;;14.13;7.25;;;12.40;70.50;;;;;;5037295;28;20551;-65
2022/10/11 01:37:14;;;;;;;20.30;9.80;;;12.40;70.30;;;;;;5035759;28;20044;-66
2022/10/11 01:39:47;;;;;;;15.73;7.30;;;12.40;70.20;;;;;;5034833;28;20029;-65
2022/10/11 01:42:16;;;;;;;14.18;7.60;;;12.40;70.20;;;;;;5031555;28;20287;-66
2022/10/11 01:44:49;;;;;;;18.42;8.40;;;12.40;70.10;;;;;;5035408;28;20029;-66
2022/10/11 01:47:19;;;;;;;18.63;7.40;;;12.40;70.10;;;;;;5033280;28;20430;-65
2022/10/11 01:49:51;;;;;;;14.85;6.15;;;12.40;70.10;;;;;;5033047;28;20025;-64
2022/10/11 01:52:16;;;;;;;15.88;7.13;;;12.40;70.10;;;;;;5031039;28;20037;-65
2022/10/11 01:55:06;;;;;;;17.13;6.38;;;12.50;70.10;;;;;;5031363;28;20037;-66
2022/10/11 01:58:15;;;;;;;21.02;8.23;;;12.40;70.20;;;;;;5035795;28;20029;-66
2022/10/11 02:01:06;;;;;;;13.15;6.63;;;12.40;70.30;;;;;;5032390;28;20052;-66
2022/10/11 02:03:46;;;;;;;14.00;5.35;;;12.30;70.20;;;;;;5033215;28;20135;-65
2022/10/11 02:06:24;;;;;;;15.98;6.70;;;12.30;70.20;;;;;;5034300;28;20043;-66
2022/10/11 02:09:00;;;;;;;16.27;6.00;;;12.20;70.30;;;;;;5024085;28;20033;-65
2022/10/11 02:11:31;;;;;;;16.60;6.13;;;12.20;70.20;;;;;;5031486;28;20033;-65
2022/10/11 02:14:11;;;;;;;20.30;6.80;;;12.10;70.50;;;;;;5042825;28;20022;-66
2022/10/11 02:16:44;;;;;;;16.05;7.28;;;12.00;70.40;;;;;;5039968;28;20402;-65
2022/10/11 02:19:14;;;;;;;16.15;6.47;;;11.90;70.40;;;;;;5034512;28;20476;-65
2022/10/11 02:21:43;;;;;;;17.17;6.55;;;11.80;70.80;;;;;;5034473;28;20025;-66
2022/10/11 02:24:18;;;;;;;14.90;6.38;;;11.80;70.50;;;;;;5027225;28;20117;-66
2022/10/11 02:26:51;;;;;;;18.20;6.63;;;11.70;70.40;;;;;;5034661;28;20465;-65
2022/10/11 02:29:19;;;;;;;16.38;7.22;;;11.70;70.40;;;;;;5036416;28;20030;-65
2022/10/11 02:31:45;;;;;;;14.48;8.45;;;11.70;70.50;;;;;;5030974;28;20095;-65
2022/10/11 02:34:34;;;;;;;16.73;6.35;;;11.60;70.80;;;;;;5046686;28;20038;-64
2022/10/11 02:37:35;;;;;;;12.52;5.82;;;11.40;70.70;;;;;;5034564;28;20034;-66
2022/10/11 02:40:23;;;;;;;18.58;8.40;;;11.50;70.20;;;;;;4993696;28;20042;-65
2022/10/11 02:43:09;;;;;;;22.23;8.88;;;11.50;70.20;;;;;;5029708;28;20338;-65
2022/10/11 02:45:42;;;;;;;18.73;7.95;;;11.60;70.20;;;;;;5020392;28;20057;-65
2022/10/11 02:48:10;;;;;;;13.57;6.43;;;11.60;70.20;;;;;;5035661;28;20421;-66
2022/10/11 02:50:38;;;;;;;13.20;5.57;;;11.70;70.20;;;;;;5034745;28;20135;-65
2022/10/11 02:53:04;;;;;;;15.50;6.93;;;11.70;70.30;;;;;;5034749;28;20040;-65
2022/10/11 02:55:30;;;;;;;12.18;6.55;;;11.70;70.30;;;;;;5024618;28;20023;-66
2022/10/11 02:57:56;;;;;;;11.30;5.93;;;11.60;70.50;;;;;;5022942;28;20448;-66
2022/10/11 03:00:22;;;;;;;11.07;5.78;;;11.60;70.50;;;;;;5031734;28;20033;-65
2022/10/11 03:02:48;;;;;;;15.52;8.18;;;11.40;70.70;;;;;;5028879;28;20057;-66
2022/10/11 03:05:13;;;;;;;15.13;8.80;;;11.30;70.80;;;;;;5032356;28;20068;-65
2022/10/11 03:07:39;;;;;;;15.77;7.57;;;11.20;70.70;;;;;;5034274;28;20037;-65
2022/10/11 03:10:08;;;;;;;15.13;7.47;;;11.20;70.70;;;;;;5033407;28;20033;-66
2022/10/11 03:12:33;;;;;;;13.10;7.13;;;11.10;70.60;;;;;;5032997;28;20041;-66
2022/10/11 03:14:59;;;;;;;17.48;6.80;;;11.10;70.40;;;;;;5034447;28;20029;-66
2022/10/11 03:17:26;;;;;;;16.88;8.75;;;11.10;70.30;;;;;;5033840;28;20065;-66
2022/10/11 03:19:52;;;;;;;13.15;7.22;;;11.10;70.30;;;;;;5034025;28;20038;-66
2022/10/11 03:22:18;;;;;;;11.55;5.93;;;11.10;70.30;;;;;;5033689;28;20037;-66
2022/10/11 03:24:44;;;;;;;12.60;6.05;;;11.20;70.30;;;;;;5032558;28;20508;-66
2022/10/11 03:27:12;;;;;;;17.02;6.70;;;11.20;70.30;;;;;;5030933;28;20036;-66
2022/10/11 03:29:38;;;;;;;20.45;8.57;;;11.10;70.30;;;;;;5019697;28;20030;-66
2022/10/11 03:32:04;;;;;;;16.92;8.70;;;11.20;70.30;;;;;;5030348;28;20033;-66
2022/10/11 03:34:30;;;;;;;14.02;7.05;;;11.20;70.20;;;;;;5032535;28;20050;-66
2022/10/11 03:36:55;;;;;;;18.73;9.35;;;11.30;70.10;;;;;;5035264;28;20330;-66
2022/10/11 03:39:21;;;;;;;19.35;8.13;;;11.30;70.20;;;;;;5031581;28;20104;-66
2022/10/11 03:41:46;;;;;;;13.27;6.65;;;11.40;70.30;;;;;;5034241;28;20057;-66
2022/10/11 03:44:12;;;;;;;17.83;8.30;;;11.40;70.30;;;;;;5030427;28;20021;-66
2022/10/11 03:46:38;;;;;;;14.00;7.32;;;11.40;70.30;;;;;;5030570;28;20025;-66
2022/10/11 03:49:03;;;;;;;17.00;8.27;;;11.40;70.20;;;;;;5027951;28;20030;-66
2022/10/11 03:51:30;;;;;;;16.33;8.05;;;11.40;70.20;;;;;;5027148;28;20132;-66
2022/10/11 03:53:56;;;;;;;15.70;7.30;;;11.50;70.20;;;;;;5027350;28;20029;-65
2022/10/11 03:56:22;;;;;;;16.17;7.53;;;11.50;70.30;;;;;;5024133;28;20029;-65
2022/10/11 03:58:47;;;;;;;14.60;6.70;;;11.50;70.30;;;;;;5022404;28;20445;-65
2022/10/11 04:01:13;;;;;;;12.98;6.10;;;11.50;70.30;;;;;;5032037;28;20418;-65
2022/10/11 04:03:39;;;;;;;14.73;7.13;;;11.60;70.20;;;;;;5029737;28;20048;-65
2022/10/11 04:06:05;;;;;;;19.05;7.38;;;11.60;70.30;;;;;;5030210;28;20029;-67
2022/10/11 04:08:30;;;;;;;15.38;7.35;;;11.60;70.30;;;;;;5045443;28;20025;-67
2022/10/11 04:10:56;;;;;;;18.63;7.65;;;11.50;70.20;;;;;;5030376;28;20021;-65
2022/10/11 04:13:22;;;;;;;17.67;7.68;;;11.50;70.20;;;;;;5028086;28;20022;-67
2022/10/11 04:15:47;;;;;;;11.32;6.20;;;11.50;70.20;;;;;;5033131;28;20030;-67
2022/10/11 04:18:16;;;;;;;11.55;5.90;;;11.60;70.20;;;;;;5029114;28;20025;-66
2022/10/11 04:20:41;;;;;;;15.95;6.93;;;11.60;70.20;;;;;;5025639;28;20033;-66
2022/10/11 04:23:10;;;;;;;13.13;6.40;;;11.70;70.20;;;;;;5021377;28;20334;-66
2022/10/11 04:25:38;;;;;;;10.70;5.70;;;11.70;70.20;;;;;;5029812;28;20030;-66
2022/10/11 04:28:06;;;;;;;12.27;5.18;;;11.70;70.30;;;;;;5031639;28;20040;-65
2022/10/11 04:30:32;;;;;;;14.05;5.78;;;11.70;70.20;;;;;;5033934;28;20021;-65
2022/10/11 04:32:58;;;;;;;16.67;7.32;;;11.70;70.20;;;;;;5032232;28;20031;-65
2022/10/11 04:35:24;;;;;;;14.95;6.97;;;11.60;70.20;;;;;;5029595;28;20079;-67
2022/10/11 04:37:49;;;;;;;14.32;7.78;;;11.70;70.20;;;;;;5039438;28;20061;-67
2022/10/11 04:40:15;;;;;;;16.45;8.85;;;11.70;70.20;;;;;;5032701;28;20039;-67
2022/10/11 04:42:40;;;;;;;14.15;7.30;;;11.80;70.20;;;;;;5034781;28;20402;-66
2022/10/11 04:45:08;;;;;;;18.63;9.43;;;11.80;70.30;;;;;;5033543;28;20064;-66
2022/10/11 04:47:34;;;;;;;13.93;5.38;;;11.80;70.30;;;;;;5035193;28;20029;-66
2022/10/11 04:49:59;;;;;;;19.52;9.23;;;11.80;70.20;;;;;;5035167;28;20034;-66
2022/10/11 04:52:25;;;;;;;11.75;5.88;;;11.80;70.20;;;;;;5036009;28;20033;-66
2022/10/11 04:54:50;;;;;;;23.25;10.05;;;11.90;70.20;;;;;;5031946;28;20017;-66
2022/10/11 04:57:16;;;;;;;13.98;6.95;;;11.90;70.30;;;;;;5035101;28;20429;-66
2022/10/11 04:59:42;;;;;;;14.68;7.55;;;11.90;70.20;;;;;;5034240;28;20041;-66
2022/10/11 05:02:07;;;;;;;17.50;9.25;;;12.00;70.10;;;;;;5032449;28;20411;-66
2022/10/11 05:04:33;;;;;;;135.30;13.82;;;12.00;70.10;;;;;;5033492;28;20041;-66
2022/10/11 05:07:01;;;;;;;307.73;17.58;;;12.10;70.10;;;;;;5035740;28;20026;-66
2022/10/11 05:09:27;;;;;;;47.22;9.00;;;12.10;70.10;;;;;;5027131;28;20421;-66
2022/10/11 05:11:53;;;;;;;24.52;9.25;;;12.10;70.10;;;;;;5033672;28;20109;-66
2022/10/11 05:14:18;;;;;;;105.85;13.07;;;12.10;70.10;;;;;;5031850;28;20437;-66
2022/10/11 05:16:44;;;;;;;199.93;18.60;;;12.10;70.10;;;;;;5031659;28;20033;-66
2022/10/11 05:19:10;;;;;;;44.80;12.43;;;12.10;70.10;;;;;;5028142;28;20029;-66
2022/10/11 05:21:35;;;;;;;20.73;12.55;;;12.10;70.00;;;;;;5022205;28;20036;-66
2022/10/11 05:24:01;;;;;;;26.13;14.15;;;12.10;70.10;;;;;;5031361;28;20030;-66
2022/10/11 05:26:27;;;;;;;44.63;13.10;;;12.10;70.00;;;;;;5034707;28;20052;-66
2022/10/11 05:28:54;;;;;;;59.80;16.85;;;12.10;70.10;;;;;;5034356;28;20309;-66
2022/10/11 05:31:20;;;;;;;43.25;18.50;;;12.20;70.10;;;;;;5035441;28;20442;-66
2022/10/11 05:33:45;;;;;;;41.13;19.55;;;12.20;70.10;;;;;;5033906;28;20092;-66
2022/10/11 05:36:11;;;;;;;26.20;14.77;;;12.20;70.10;;;;;;5034588;28;20030;-66
2022/10/11 05:38:37;;;;;;;89.13;23.38;;;12.20;70.10;;;;;;5033606;28;20096;-66
2022/10/11 05:41:04;;;;;;;68.53;21.48;;;12.20;70.10;;;;;;5032615;28;20406;-66
2022/10/11 05:43:31;;;;;;;35.38;19.50;;;12.20;70.10;;;;;;5034540;28;20022;-66
2022/10/11 05:45:57;;;;;;;174.10;28.55;;;12.20;70.10;;;;;;5035475;28;20384;-66
2022/10/11 05:48:25;;;;;;;22.23;15.90;;;12.20;70.00;;;;;;5033078;28;20402;-66
2022/10/11 05:50:51;;;;;;;133.52;26.25;;;12.20;70.10;;;;;;5033273;28;20051;-66
2022/10/11 05:53:17;;;;;;;33.45;18.73;;;12.20;70.10;;;;;;5034517;28;20100;-66
2022/10/11 05:55:43;;;;;;;30.23;18.80;;;12.30;70.10;;;;;;5034114;28;20039;-66
2022/10/11 05:58:12;;;;;;;96.65;29.02;;;12.30;70.10;;;;;;5034479;28;20028;-66
2022/10/11 06:00:38;;;;;;;39.97;22.15;;;12.30;70.10;;;;;;5035485;28;20033;-66
2022/10/11 06:03:06;;;;;;;37.70;22.50;;;12.30;70.10;;;;;;5033677;28;20025;-66
2022/10/11 06:05:33;;;;;;;34.55;19.95;;;12.30;70.10;;;;;;5035306;28;20057;-66
2022/10/11 06:07:59;;;;;;;65.53;26.92;;;12.30;70.10;;;;;;5035497;28;20029;-66
2022/10/11 06:10:24;;;;;;;205.57;30.73;;;12.30;70.10;;;;;;5034118;28;20319;-66
2022/10/11 06:12:50;;;;;;;117.78;29.25;;;12.30;70.00;;;;;;5035338;28;20096;-65
2022/10/11 06:15:16;;;;;;;81.53;27.73;;;12.30;70.10;;;;;;5038153;28;20494;-66
2022/10/11 06:17:42;;;;;;;98.97;25.40;;;12.30;70.00;;;;;;5035314;28;20417;-65
2022/10/11 06:20:08;;;;;;;71.88;31.85;;;12.30;70.00;;;;;;5038659;28;20067;-65
2022/10/11 06:22:34;;;;;;;45.42;26.65;;;12.30;70.10;;;;;;5038493;28;20021;-66
2022/10/11 06:25:00;;;;;;;65.50;28.77;;;12.40;70.10;;;;;;5032654;28;20040;-65
2022/10/11 06:27:29;;;;;;;61.17;28.40;;;12.40;70.10;;;;;;5037029;28;20036;-66
2022/10/11 06:29:57;;;;;;;35.97;20.08;;;12.50;70.10;;;;;;5037760;28;20026;-64
2022/10/11 06:32:23;;;;;;;32.40;18.58;;;12.50;70.10;;;;;;5037053;28;20037;-65
2022/10/11 06:34:48;;;;;;;49.08;24.85;;;12.40;70.10;;;;;;5037586;28;20079;-65
2022/10/11 06:37:14;;;;;;;33.40;20.10;;;12.40;70.10;;;;;;5038257;28;20382;-65
2022/10/11 06:39:40;;;;;;;33.28;20.40;;;12.50;70.10;;;;;;5037501;28;20116;-64
2022/10/11 06:42:06;;;;;;;60.25;25.48;;;12.50;70.10;;;;;;5038443;28;20068;-65
2022/10/11 06:44:32;;;;;;;54.15;25.00;;;12.50;70.10;;;;;;5038618;28;20069;-65
2022/10/11 06:46:58;;;;;;;113.05;28.27;;;12.60;70.10;;;;;;5037690;28;20033;-65
2022/10/11 06:49:24;;;;;;;89.22;31.38;;;12.60;70.00;;;;;;5036405;28;20124;-66
2022/10/11 06:51:50;;;;;;;246.25;33.83;;;12.60;70.10;;;;;;5038263;28;20057;-64
2022/10/11 06:54:16;;;;;;;61.63;26.13;;;12.50;69.80;;;;;;5035692;28;20426;-65
2022/10/11 06:56:43;;;;;;;132.85;31.42;;;12.50;69.70;;;;;;5031879;28;20040;-65
2022/10/11 06:59:09;;;;;;;110.72;32.15;;;12.50;69.80;;;;;;5036440;28;20426;-65
2022/10/11 07:01:34;;;;;;;111.70;34.20;;;12.40;69.70;;;;;;5037992;28;20030;-66
2022/10/11 07:04:01;;;;;;;87.05;29.73;;;12.40;69.80;;;;;;5038068;28;20113;-66
2022/10/11 07:06:28;;;;;;;197.45;40.13;;;12.40;69.80;;;;;;5037863;28;20029;-66
2022/10/11 07:08:54;;;;;;;141.77;34.58;;;12.40;69.80;;;;;;5036635;28;20445;-66
2022/10/11 07:11:23;;;;;;;78.03;30.30;;;12.40;69.80;;;;;;5037825;28;20032;-66
2022/10/11 07:14:03;;;;;;;101.95;31.38;;;12.40;69.70;;;;;;5035673;28;20104;-66
2022/10/11 07:16:29;;;;;;;138.82;38.03;;;12.30;69.80;;;;;;5028776;28;20494;-66
2022/10/11 07:18:57;;;;;;;122.50;33.90;;;12.40;69.70;;;;;;5036567;28;20039;-66
2022/10/11 07:21:23;;;;;;;84.25;31.63;;;12.40;69.70;;;;;;5037703;28;20156;-65
2022/10/11 07:23:49;;;;;;;115.88;32.65;;;12.40;69.70;;;;;;5035959;28;20061;-66
2022/10/11 07:26:14;;;;;;;86.90;31.23;;;12.40;69.80;;;;;;5037545;28;20021;-66
2022/10/11 07:28:41;;;;;;;69.25;27.95;;;12.40;69.70;;;;;;5037501;28;20083;-66
2022/10/11 07:31:15;;;;;;;153.93;34.22;;;12.40;69.70;;;;;;5037499;28;20068;-66
2022/10/11 07:33:41;;;;;;;111.47;27.88;;;12.40;69.70;;;;;;5036491;28;20025;-66
2022/10/11 07:36:07;;;;;;;181.35;34.22;;;12.40;69.70;;;;;;5036189;28;20026;-66
2022/10/11 07:38:33;;;;;;;141.75;30.90;;;12.40;69.70;;;;;;5037106;28;20133;-66
2022/10/11 07:41:04;;;;;;;188.98;32.85;;;12.40;69.70;;;;;;5036112;28;20113;-66
2022/10/11 07:43:30;;;;;;;137.20;28.77;;;12.50;69.70;;;;;;5037213;28;20035;-66
2022/10/11 07:45:59;;;;;;;171.38;34.75;;;12.50;69.80;;;;;;5037219;28;20102;-66
2022/10/11 07:48:24;;;;;;;87.05;28.42;;;12.40;69.70;;;;;;5037314;28;20021;-66
2022/10/11 07:50:50;;;;;;;117.30;37.40;;;12.40;69.70;;;;;;5036151;28;20357;-66
2022/10/11 07:53:16;;;;;;;132.85;42.13;;;12.40;69.80;;;;;;5035684;28;20037;-66
2022/10/11 07:55:42;;;;;;;83.15;34.15;;;12.40;69.70;;;;;;5035922;28;20326;-66
2022/10/11 07:58:08;;;;;;;81.80;32.72;;;12.50;69.50;;;;;;5036908;28;20018;-66
2022/10/11 08:00:34;;;;;;;64.25;30.60;;;12.50;69.80;;;;;;5037028;28;20030;-65
2022/10/11 08:03:06;;;;;;;60.13;30.90;;;12.50;69.90;;;;;;5036050;28;20026;-65
2022/10/11 08:05:36;;;;;;;62.92;31.00;;;12.40;69.90;;;;;;5036812;28;20060;-65
2022/10/11 08:08:01;;;;;;;62.58;32.72;;;12.40;69.80;;;;;;5036999;28;20430;-65
2022/10/11 08:10:27;;;;;;;86.93;37.75;;;12.40;69.90;;;;;;5033969;28;20095;-65
2022/10/11 08:12:53;;;;;;;72.53;35.40;;;12.40;70.10;;;;;;5036588;28;20060;-65
2022/10/11 08:15:19;;;;;;;83.03;37.05;;;12.40;70.10;;;;;;5036688;28;20017;-65
2022/10/11 08:17:45;;;;;;;52.17;29.55;;;12.40;70.40;;;;;;5036530;28;20023;-66
2022/10/11 08:20:11;;;;;;;66.20;32.58;;;12.40;69.90;;;;;;5036830;28;20049;-66
2022/10/11 08:22:38;;;;;;;74.78;33.10;;;12.50;70.50;;;;;;5036540;28;20083;-66
2022/10/11 08:25:04;;;;;;;72.63;35.03;;;12.50;70.70;;;;;;5034437;28;20072;-66
2022/10/11 08:27:30;;;;;;;78.13;35.80;;;12.50;70.70;;;;;;5036386;28;20021;-66
2022/10/11 08:29:56;;;;;;;76.88;35.15;;;12.40;71.10;;;;;;5036312;28;20324;-66
2022/10/11 08:32:21;;;;;;;67.53;32.45;;;12.50;71.50;;;;;;5036494;28;20025;-66
2022/10/11 08:34:47;;;;;;;60.05;28.77;;;12.40;71.50;;;;;;5033421;28;20410;-66
2022/10/11 08:37:13;;;;;;;66.82;33.20;;;12.50;71.30;;;;;;5033000;28;20465;-66
2022/10/11 08:39:39;;;;;;;65.60;33.08;;;12.50;71.70;;;;;;5031000;28;20060;-66
2022/10/11 08:42:19;;;;;;;63.08;31.35;;;12.40;72.00;;;;;;5032697;28;20059;-66
2022/10/11 08:45:06;;;;;;;66.68;32.72;;;12.40;72.00;;;;;;5034683;28;20036;-67
2022/10/11 08:47:34;;;;;;;77.13;35.78;;;12.40;72.10;;;;;;5034785;28;20038;-67
2022/10/11 08:50:01;;;;;;;58.40;31.08;;;12.40;72.50;;;;;;5041396;28;20029;-66
2022/10/11 08:52:46;;;;;;;64.60;32.67;;;12.40;73.00;;;;;;5033839;28;20021;-66
2022/10/11 08:55:27;;;;;;;46.70;26.00;;;12.40;72.90;;;;;;5034053;28;20030;-66
2022/10/11 08:57:55;;;;;;;51.90;28.75;;;12.40;73.30;;;;;;5035994;28;20029;-66
2022/10/11 09:00:23;;;;;;;58.88;32.72;;;12.50;73.70;;;;;;5034809;28;20033;-66
2022/10/11 09:03:26;;;;;;;64.03;30.65;;;12.60;74.40;;;;;;5035247;28;20033;-66
2022/10/11 09:06:33;;;;;;;52.42;28.38;;;12.50;76.60;;;;;;5033568;28;20030;-66
2022/10/11 09:09:09;;;;;;;66.80;33.75;;;12.40;77.10;;;;;;5014604;28;20333;-66
2022/10/11 09:11:54;;;;;;;63.72;32.22;;;12.40;77.40;;;;;;5035620;28;20021;-66
2022/10/11 09:14:32;;;;;;;55.53;29.75;;;12.50;76.00;;;;;;5035725;28;20037;-66
2022/10/11 09:17:26;;;;;;;52.67;28.75;;;12.70;76.50;;;;;;5034043;28;20022;-72
2022/10/11 09:20:10;;;;;;;41.70;24.42;;;12.80;77.50;;;;;;5035951;28;20017;-65
2022/10/11 09:22:44;;;;;;;48.70;24.88;;;13.00;77.30;;;;;;5035293;28;20104;-66
2022/10/11 09:25:24;;;;;;;43.72;21.05;;;13.10;79.70;;;;;;5032529;28;20025;-66
2022/10/11 09:28:13;;;;;;;43.67;23.00;;;13.30;81.60;;;;;;5031827;28;20449;-66
2022/10/11 09:30:46;;;;;;;39.15;20.05;;;13.30;86.40;;;;;;4996071;28;20399;-67
2022/10/11 09:33:20;;;;;;;36.58;21.15;;;13.30;86.10;;;;;;5035862;28;20100;-66
2022/10/11 09:35:48;;;;;;;31.38;18.80;;;13.40;89.30;;;;;;5034722;28;20322;-66
2022/10/11 09:38:49;;;;;;;29.20;18.40;;;13.40;89.30;;;;;;5037127;28;20329;-66
2022/10/11 09:41:44;;;;;;;32.70;19.27;;;13.50;90.00;;;;;;5031812;28;20017;-66
2022/10/11 09:44:21;;;;;;;28.50;16.67;;;13.70;91.10;;;;;;5034774;28;20048;-66
2022/10/11 09:46:48;;;;;;;30.02;16.58;;;13.80;90.90;;;;;;5036506;28;20021;-66
2022/10/11 09:49:18;;;;;;;28.10;15.65;;;13.90;91.80;;;;;;5037791;28;20072;-66
2022/10/11 09:51:56;;;;;;;28.75;17.65;;;14.00;92.40;;;;;;5037671;28;20044;-66
2022/10/11 09:54:48;;;;;;;29.70;17.77;;;14.20;92.20;;;;;;5036411;28;20056;-66
2022/10/11 09:57:27;;;;;;;25.95;14.43;;;14.40;94.70;;;;;;5037006;28;20096;-66
2022/10/11 10:00:07;;;;;;;26.55;15.10;;;14.60;94.00;;;;;;5039109;28;20025;-66
2022/10/11 10:02:45;;;;;;;26.00;15.20;;;14.90;97.80;;;;;;5037628;28;20112;-66
2022/10/11 10:05:18;;;;;;;24.83;12.60;;;15.20;98.00;;;;;;5038812;28;20049;-66
2022/10/11 10:07:56;;;;;;;24.15;12.60;;;15.30;98.00;;;;;;5036978;28;20082;-66
2022/10/11 10:10:33;;;;;;;28.25;16.23;;;15.40;98.00;;;;;;5034165;28;20036;-66
2022/10/11 10:13:02;;;;;;;27.17;15.80;;;15.50;98.00;;;;;;5038272;28;20318;-66
2022/10/11 10:15:34;;;;;;;30.17;15.70;;;15.40;98.00;;;;;;5038368;28;20023;-66
2022/10/11 10:18:00;;;;;;;21.67;14.43;;;15.50;98.00;;;;;;5036625;28;20022;-65
2022/10/11 10:20:33;;;;;;;28.83;16.90;;;15.40;98.00;;;;;;5037904;28;20112;-66
2022/10/11 10:23:17;;;;;;;23.98;14.52;;;15.30;98.00;;;;;;5038935;28;20025;-66
2022/10/11 10:25:49;;;;;;;24.65;14.63;;;15.30;98.00;;;;;;5037623;28;20030;-66
2022/10/11 10:28:24;;;;;;;29.75;15.35;;;15.50;98.00;;;;;;5038704;28;20036;-66
2022/10/11 10:30:56;;;;;;;27.38;15.07;;;15.70;98.00;;;;;;5038599;28;20418;-66
2022/10/11 10:33:26;;;;;;;23.40;14.93;;;15.80;98.00;;;;;;5037903;28;20048;-66
2022/10/11 10:36:05;;;;;;;25.35;13.65;;;16.00;98.00;;;;;;5037305;28;20036;-66
2022/10/11 10:38:55;;;;;;;19.20;11.25;;;16.30;98.00;;;;;;5036671;28;20045;-66
2022/10/11 10:41:21;;;;;;;20.92;12.00;;;16.50;98.00;;;;;;5036812;28;20060;-66
2022/10/11 10:43:56;;;;;;;21.48;10.85;;;16.60;98.00;;;;;;5038456;28;20100;-66
2022/10/11 10:46:45;;;;;;;22.77;11.93;;;16.60;98.00;;;;;;5038636;28;20108;-66
2022/10/11 10:49:16;;;;;;;22.02;10.35;;;16.70;98.00;;;;;;5033922;28;20061;-66
2022/10/11 10:52:04;;;;;;;20.77;10.45;;;16.70;98.00;;;;;;5033112;28;20021;-66
2022/10/11 10:54:49;;;;;;;20.27;11.50;;;16.70;98.00;;;;;;5032480;28;20021;-66
2022/10/11 10:57:27;;;;;;;24.77;12.63;;;16.40;98.00;;;;;;5027590;28;20108;-66
2022/10/11 10:59:59;;;;;;;15.82;9.30;;;16.20;98.00;;;;;;5025063;28;20033;-66
2022/10/11 11:02:47;;;;;;;23.30;12.02;;;16.30;98.00;;;;;;5022338;28;20037;-66
2022/10/11 11:05:25;;;;;;;21.00;11.80;;;16.40;98.00;;;;;;5024388;28;20033;-65
2022/10/11 11:08:17;;;;;;;20.52;12.80;;;16.60;98.00;;;;;;5021940;28;20052;-66
2022/10/11 11:11:06;;;;;;;21.38;12.13;;;16.40;98.00;;;;;;5032705;28;20037;-66
2022/10/11 11:13:53;;;;;;;18.33;11.13;;;16.30;98.00;;;;;;5032846;28;20018;-65
2022/10/11 11:16:35;;;;;;;18.67;11.32;;;16.30;98.00;;;;;;5020494;28;20339;-65
2022/10/11 11:19:35;;;;;;;21.92;12.07;;;16.30;98.00;;;;;;5025707;28;20038;-65
2022/10/11 11:22:08;;;;;;;18.70;10.70;;;16.30;98.00;;;;;;5023779;28;20033;-65
2022/10/11 11:24:56;;;;;;;19.52;11.38;;;16.30;98.00;;;;;;5020575;28;20022;-64
2022/10/11 11:28:03;;;;;;;20.20;12.65;;;16.40;98.00;;;;;;5022837;28;20448;-64
2022/10/11 11:30:43;;;;;;;22.98;12.57;;;16.30;98.00;;;;;;5007240;28;20048;-65
2022/10/11 11:33:35;;;;;;;19.80;10.45;;;15.90;98.00;;;;;;5021380;28;20025;-64
2022/10/11 11:36:12;;;;;;;17.00;9.98;;;16.00;98.00;;;;;;5021434;28;20025;-66
2022/10/11 11:38:41;;;;;;;20.23;11.63;;;16.10;98.00;;;;;;5021917;28;20385;-66
2022/10/11 11:41:20;;;;;;;21.83;13.52;;;16.10;98.00;;;;;;5021228;28;20032;-67
2022/10/11 11:44:01;;;;;;;16.33;9.95;;;16.20;98.00;;;;;;5024380;28;20430;-66
2022/10/11 11:46:59;;;;;;;25.70;15.93;;;16.30;98.00;;;;;;5018601;28;20022;-66
2022/10/11 11:49:34;;;;;;;27.30;17.13;;;16.40;98.00;;;;;;5019282;28;20045;-65
2022/10/11 11:52:03;;;;;;;23.73;14.45;;;16.20;98.00;;;;;;5051774;28;20020;-64
2022/10/11 11:54:56;;;;;;;33.53;16.60;;;16.20;98.00;;;;;;5034805;28;20383;-64
2022/10/11 11:57:56;;;;;;;30.20;15.70;;;16.40;98.00;;;;;;5021532;28;20037;-64
2022/10/11 12:00:40;;;;;;;21.13;13.07;;;16.30;98.00;;;;;;5020900;28;20029;-64
2022/10/11 12:03:12;;;;;;;34.30;16.58;;;16.20;98.00;;;;;;5020734;28;20064;-64
2022/10/11 12:05:58;;;;;;;26.88;15.50;;;16.20;98.00;;;;;;5034010;28;20036;-64
2022/10/11 12:08:27;;;;;;;28.05;16.40;;;16.20;98.00;;;;;;5018531;28;20083;-65
2022/10/11 12:11:01;;;;;;;24.45;15.95;;;15.90;98.00;;;;;;5021601;28;20571;-65
2022/10/11 12:13:38;;;;;;;28.23;16.38;;;15.60;98.00;;;;;;5037972;28;20017;-65
2022/10/11 12:16:11;;;;;;;27.75;15.73;;;15.60;98.00;;;;;;5035167;28;20030;-65
2022/10/11 12:19:13;;;;;;;32.72;18.70;;;15.60;98.00;;;;;;5032546;28;20021;-65
2022/10/11 12:21:43;;;;;;;35.33;21.20;;;15.40;98.00;;;;;;5024450;28;20128;-64
2022/10/11 12:24:19;;;;;;;39.75;20.95;;;15.40;98.00;;;;;;5016728;28;20033;-64
2022/10/11 12:26:56;;;;;;;28.42;16.80;;;15.30;98.00;;;;;;5020545;28;20029;-65
2022/10/11 12:29:48;;;;;;;26.73;15.77;;;15.20;98.00;;;;;;5019808;28;20022;-64
2022/10/11 12:32:34;;;;;;;30.33;19.10;;;15.50;98.00;;;;;;5022685;28;20030;-64
2022/10/11 12:35:31;;;;;;;27.95;16.45;;;15.70;98.00;;;;;;5023929;28;20022;-64
2022/10/11 12:38:17;;;;;;;30.23;17.25;;;15.80;98.00;;;;;;5031921;28;20049;-65
2022/10/11 12:40:46;;;;;;;31.10;18.00;;;16.00;98.00;;;;;;5028124;28;20033;-65
2022/10/11 12:43:14;;;;;;;23.17;16.35;;;15.80;98.00;;;;;;5032635;28;20104;-65
2022/10/11 12:45:46;;;;;;;21.98;15.48;;;15.60;98.00;;;;;;5030979;28;20033;-65
2022/10/11 12:48:42;;;;;;;24.25;15.13;;;15.70;98.00;;;;;;5031231;28;20061;-65
2022/10/11 12:51:40;;;;;;;23.73;15.05;;;15.90;98.00;;;;;;5021660;28;20430;-64
2022/10/11 12:54:42;;;;;;;29.45;15.63;;;16.10;98.00;;;;;;5021640;28;20052;-64
2022/10/11 12:57:11;;;;;;;30.13;18.38;;;16.20;98.00;;;;;;5032509;28;20075;-64